createdAt,value
2022-08-20T00:00:00.636Z,5.18
2022-08-20T00:02:29.108Z,8.48
2022-08-20T00:04:57.533Z,3.70
2022-08-20T00:07:26.016Z,2.47
2022-08-20T00:09:56.030Z,3.30
2022-08-20T00:12:24.605Z,4.55
2022-08-20T00:14:53.124Z,3.45
2022-08-20T00:17:21.526Z,5.00
2022-08-20T00:19:50.070Z,3.45
2022-08-20T00:22:18.641Z,3.08
2022-08-20T00:24:47.493Z,3.20
2022-08-20T00:27:17.409Z,7.55
2022-08-20T00:29:45.937Z,3.60
2022-08-20T00:32:14.497Z,2.78
2022-08-20T00:34:43.246Z,2.40
2022-08-20T00:37:11.825Z,3.45
2022-08-20T00:39:40.463Z,3.00
2022-08-20T00:42:09.490Z,1.83
2022-08-20T00:44:46.572Z,4.55
2022-08-20T00:47:15.124Z,3.58
2022-08-20T00:49:45.646Z,4.53
2022-08-20T00:52:19.221Z,2.33
2022-08-20T00:57:26.520Z,2.85
2022-08-20T00:59:58.347Z,4.43
2022-08-20T01:02:30.337Z,2.20
2022-08-20T01:04:59.408Z,3.22
2022-08-20T01:07:34.881Z,5.03
2022-08-20T01:10:08.048Z,2.30
2022-08-20T01:12:36.813Z,2.17
2022-08-20T01:15:12.091Z,4.28
2022-08-20T01:17:46.389Z,3.33
2022-08-20T01:20:18.584Z,4.43
2022-08-20T01:23:12.320Z,5.50
2022-08-20T01:25:47.078Z,2.80
2022-08-20T01:28:17.804Z,4.38
2022-08-20T01:30:46.805Z,3.70
2022-08-20T01:33:15.661Z,4.30
2022-08-20T01:35:45.348Z,3.65
2022-08-20T01:38:15.061Z,2.70
2022-08-20T01:40:59.798Z,4.93
2022-08-20T01:43:28.594Z,3.10
2022-08-20T01:46:01.799Z,2.72
2022-08-20T01:48:32.890Z,3.17
2022-08-20T01:51:07.112Z,5.05
2022-08-20T01:53:38.841Z,5.65
2022-08-20T01:56:12.112Z,3.50
2022-08-20T01:58:43.552Z,4.45
2022-08-20T02:01:21.647Z,4.05
2022-08-20T02:03:51.291Z,4.60
2022-08-20T02:06:20.136Z,3.83
2022-08-20T02:08:48.694Z,3.40
2022-08-20T02:11:18.633Z,4.00
2022-08-20T02:13:49.758Z,4.65
2022-08-20T02:16:17.898Z,4.78
2022-08-20T02:18:46.472Z,3.63
2022-08-20T02:21:14.956Z,3.83
2022-08-20T02:23:43.771Z,6.25
2022-08-20T02:26:12.275Z,5.22
2022-08-20T02:28:42.466Z,5.60
2022-08-20T02:31:10.986Z,3.92
2022-08-20T02:33:39.466Z,3.45
2022-08-20T02:36:09.165Z,3.83
2022-08-20T02:38:39.177Z,3.00
2022-08-20T02:41:08.375Z,4.15
2022-08-20T02:43:37.581Z,3.53
2022-08-20T02:46:09.116Z,4.85
2022-08-20T02:48:37.610Z,6.97
2022-08-20T02:51:08.009Z,3.70
2022-08-20T02:53:39.582Z,3.42
2022-08-20T02:56:09.449Z,4.97
2022-08-20T02:58:38.608Z,2.50
2022-08-20T03:01:12.711Z,2.08
2022-08-20T03:03:41.801Z,2.33
2022-08-20T03:06:12.593Z,2.28
2022-08-20T03:08:41.111Z,4.68
2022-08-20T03:11:09.628Z,2.78
2022-08-20T03:13:38.820Z,5.78
2022-08-20T03:16:09.418Z,3.17
2022-08-20T03:18:43.454Z,3.05
2022-08-20T03:21:14.855Z,1.65
2022-08-20T03:23:43.800Z,2.50
2022-08-20T03:26:14.330Z,2.17
2022-08-20T03:28:43.541Z,2.17
2022-08-20T03:31:15.491Z,3.45
2022-08-20T03:33:53.447Z,1.80
2022-08-20T03:36:28.519Z,1.80
2022-08-20T03:38:58.309Z,2.33
2022-08-20T03:41:27.392Z,3.80
2022-08-20T03:43:56.415Z,4.05
2022-08-20T03:46:27.085Z,2.05
2022-08-20T03:48:59.917Z,5.00
2022-08-20T03:53:58.153Z,3.35
2022-08-20T03:56:26.953Z,4.18
2022-08-20T03:58:58.208Z,2.33
2022-08-20T04:01:45.416Z,3.08
2022-08-20T04:04:15.042Z,3.08
2022-08-20T04:06:44.424Z,4.05
2022-08-20T04:09:13.228Z,3.05
2022-08-20T04:11:41.832Z,4.57
2022-08-20T04:14:11.602Z,4.70
2022-08-20T04:16:48.851Z,3.13
2022-08-20T04:19:18.337Z,2.85
2022-08-20T04:21:49.057Z,3.10
2022-08-20T04:24:22.631Z,3.10
2022-08-20T04:27:00.649Z,3.10
2022-08-20T04:29:32.118Z,2.28
2022-08-20T04:32:05.878Z,3.25
2022-08-20T04:34:35.592Z,5.88
2022-08-20T04:37:04.745Z,3.33
2022-08-20T04:39:33.200Z,3.28
2022-08-20T04:42:00.763Z,3.63
2022-08-20T04:44:29.289Z,3.42
2022-08-20T04:46:58.092Z,3.38
2022-08-20T04:49:28.125Z,3.58
2022-08-20T04:51:56.861Z,3.10
2022-08-20T04:54:25.401Z,2.75
2022-08-20T04:56:54.244Z,3.88
2022-08-20T04:59:22.768Z,5.15
2022-08-20T05:01:52.024Z,3.17
2022-08-20T05:04:20.554Z,4.75
2022-08-20T05:06:51.404Z,3.20
2022-08-20T05:09:19.901Z,3.58
2022-08-20T05:11:48.764Z,4.90
2022-08-20T05:14:17.225Z,4.43
2022-08-20T05:16:45.685Z,3.67
2022-08-20T05:19:14.897Z,5.20
2022-08-20T05:21:43.353Z,5.78
2022-08-20T05:24:13.361Z,5.10
2022-08-20T05:26:41.982Z,3.50
2022-08-20T05:29:10.425Z,4.18
2022-08-20T05:31:39.589Z,3.78
2022-08-20T05:34:13.461Z,4.80
2022-08-20T05:36:45.017Z,4.05
2022-08-20T05:39:15.690Z,3.85
2022-08-20T05:41:44.196Z,5.10
2022-08-20T05:44:15.233Z,3.90
2022-08-20T05:46:44.934Z,3.42
2022-08-20T05:49:16.378Z,3.28
2022-08-20T05:51:45.289Z,3.20
2022-08-20T05:54:16.284Z,3.35
2022-08-20T05:56:45.775Z,3.33
2022-08-20T05:59:14.262Z,7.28
2022-08-20T06:01:44.236Z,4.78
2022-08-20T06:04:28.234Z,4.10
2022-08-20T06:06:59.833Z,4.72
2022-08-20T06:09:31.934Z,4.28
2022-08-20T06:12:02.813Z,3.60
2022-08-20T06:14:32.161Z,6.05
2022-08-20T06:17:08.182Z,4.15
2022-08-20T06:19:38.417Z,5.88
2022-08-20T06:22:17.557Z,4.40
2022-08-20T06:24:51.505Z,4.18
2022-08-20T06:27:20.497Z,4.07
2022-08-20T06:29:49.375Z,7.13
2022-08-20T06:32:19.974Z,5.55
2022-08-20T06:35:02.290Z,5.57
2022-08-20T06:37:32.433Z,6.40
2022-08-20T06:40:06.932Z,4.15
2022-08-20T06:42:36.201Z,7.13
2022-08-20T06:45:06.157Z,5.38
2022-08-20T06:47:35.710Z,4.20
2022-08-20T06:50:04.197Z,4.88
2022-08-20T06:52:52.315Z,3.58
2022-08-20T06:55:24.114Z,4.47
2022-08-20T06:57:59.721Z,5.78
2022-08-20T07:00:29.350Z,8.85
2022-08-20T07:02:58.215Z,4.20
2022-08-20T07:05:26.866Z,4.97
2022-08-20T07:07:55.939Z,4.35
2022-08-20T07:10:27.331Z,5.43
2022-08-20T07:12:57.622Z,3.33
2022-08-20T07:15:27.648Z,3.72
2022-08-20T07:18:01.405Z,5.35
2022-08-20T07:20:32.085Z,3.63
2022-08-20T07:23:01.248Z,4.50
2022-08-20T07:25:33.765Z,5.22
2022-08-20T07:28:04.445Z,7.55
2022-08-20T07:30:56.679Z,4.97
2022-08-20T07:33:28.579Z,4.93
2022-08-20T07:35:58.589Z,5.10
2022-08-20T07:38:30.786Z,4.25
2022-08-20T07:41:03.560Z,4.50
2022-08-20T07:43:35.239Z,4.05
2022-08-20T07:46:09.322Z,5.97
2022-08-20T07:48:40.648Z,4.70
2022-08-20T07:51:12.487Z,10.63
2022-08-20T07:53:42.158Z,5.03
2022-08-20T07:56:15.720Z,6.55
2022-08-20T07:58:50.323Z,6.70
2022-08-20T08:01:20.299Z,8.55
2022-08-20T08:03:50.722Z,8.00
2022-08-20T08:06:29.569Z,7.75
2022-08-20T08:09:01.262Z,6.13
2022-08-20T08:11:32.726Z,8.50
2022-08-20T08:14:01.733Z,6.53
2022-08-20T08:16:31.288Z,8.15
2022-08-20T08:19:02.305Z,9.68
2022-08-20T08:21:32.605Z,8.20
2022-08-20T08:24:01.626Z,10.60
2022-08-20T08:26:31.589Z,11.15
2022-08-20T08:29:00.252Z,8.68
2022-08-20T08:31:29.093Z,11.07
2022-08-20T08:33:57.824Z,9.57
2022-08-20T08:36:27.005Z,13.18
2022-08-20T08:38:56.769Z,12.27
2022-08-20T08:41:32.238Z,11.50
2022-08-20T08:44:08.428Z,11.05
2022-08-20T08:46:42.009Z,11.57
2022-08-20T08:51:46.538Z,12.10
2022-08-20T08:54:18.039Z,14.38
2022-08-20T08:56:49.957Z,15.45
2022-08-20T08:59:21.909Z,13.55
2022-08-20T09:01:57.154Z,13.77
2022-08-20T09:04:31.978Z,15.07
2022-08-20T09:07:03.196Z,15.55
2022-08-20T09:09:34.366Z,15.18
2022-08-20T09:12:07.277Z,15.48
2022-08-20T09:14:37.409Z,14.23
2022-08-20T09:17:06.854Z,18.30
2022-08-20T09:19:35.424Z,17.38
2022-08-20T09:22:09.286Z,15.57
2022-08-20T09:24:38.136Z,15.38
2022-08-20T09:27:07.092Z,14.50
2022-08-20T09:29:37.482Z,17.27
2022-08-20T09:32:08.061Z,12.93
2022-08-20T09:34:39.661Z,16.60
2022-08-20T09:37:08.673Z,21.88
2022-08-20T09:39:37.931Z,15.20
2022-08-20T09:42:12.418Z,23.23
2022-08-20T09:44:43.147Z,15.52
2022-08-20T09:47:12.431Z,15.73
2022-08-20T09:49:42.023Z,18.50
2022-08-20T09:52:13.505Z,14.77
2022-08-20T09:54:46.608Z,14.52
2022-08-20T09:57:16.949Z,13.80
2022-08-20T09:59:58.017Z,13.18
2022-08-20T10:02:27.749Z,15.90
2022-08-20T10:04:56.645Z,14.05
2022-08-20T10:07:26.506Z,14.68
2022-08-20T10:09:55.709Z,15.15
2022-08-20T10:12:25.117Z,17.05
2022-08-20T10:14:55.899Z,12.77
2022-08-20T10:17:30.346Z,14.82
2022-08-20T10:19:58.994Z,13.75
2022-08-20T10:22:27.674Z,15.35
2022-08-20T10:24:56.476Z,18.77
2022-08-20T10:27:25.261Z,18.85
2022-08-20T10:29:55.345Z,20.50
2022-08-20T10:32:24.006Z,21.58
2022-08-20T10:34:52.814Z,21.77
2022-08-20T10:37:23.940Z,21.33
2022-08-20T10:39:53.194Z,25.95
2022-08-20T10:42:22.301Z,22.08
2022-08-20T10:44:51.352Z,19.13
2022-08-20T10:47:25.120Z,21.55
2022-08-20T10:49:56.590Z,19.25
2022-08-20T10:52:33.258Z,18.40
2022-08-20T10:55:04.446Z,19.58
2022-08-20T10:57:47.333Z,20.33
2022-08-20T11:00:18.934Z,19.40
2022-08-20T11:06:48.642Z,18.30
2022-08-20T11:09:18.248Z,18.05
2022-08-20T11:12:00.504Z,18.98
2022-08-20T11:14:30.557Z,18.98
2022-08-20T11:20:55.899Z,19.27
2022-08-20T11:23:28.655Z,20.55
2022-08-20T11:26:00.263Z,18.95
2022-08-20T11:28:38.277Z,19.98
2022-08-20T11:32:16.036Z,20.38
2022-08-20T11:34:45.135Z,19.65
2022-08-20T11:37:15.575Z,20.42
2022-08-20T11:39:46.597Z,19.15
2022-08-20T11:42:16.094Z,20.13
2022-08-20T11:44:45.692Z,18.45
2022-08-20T11:47:36.403Z,22.15
2022-08-20T11:50:09.077Z,19.65
2022-08-20T11:52:38.595Z,19.90
2022-08-20T11:57:59.877Z,18.35
2022-08-20T12:03:02.671Z,21.17
2022-08-20T12:05:31.455Z,18.77
2022-08-20T12:08:03.115Z,19.67
2022-08-20T12:10:33.179Z,19.85
2022-08-20T12:13:04.669Z,21.48
2022-08-20T12:15:36.925Z,20.77
2022-08-20T12:18:13.823Z,20.08
2022-08-20T12:20:42.788Z,19.73
2022-08-20T12:23:11.533Z,19.45
2022-08-20T12:25:43.476Z,20.00
2022-08-20T12:28:17.024Z,19.23
2022-08-20T12:30:51.991Z,20.25
2022-08-20T12:33:20.962Z,16.17
2022-08-20T12:35:49.619Z,18.23
2022-08-20T12:38:18.429Z,17.23
2022-08-20T12:40:47.128Z,19.15
2022-08-20T12:43:18.908Z,17.33
2022-08-20T12:45:50.657Z,19.38
2022-08-20T12:48:21.109Z,19.98
2022-08-20T12:50:50.598Z,17.80
2022-08-20T12:53:19.174Z,17.55
2022-08-20T12:55:47.945Z,16.75
2022-08-20T12:58:19.271Z,17.25
2022-08-20T13:00:51.544Z,17.42
2022-08-20T13:03:21.582Z,17.73
2022-08-20T13:05:50.828Z,18.90
2022-08-20T13:08:19.707Z,17.67
2022-08-20T13:10:49.312Z,18.23
2022-08-20T13:13:21.279Z,17.20
2022-08-20T13:15:51.605Z,19.05
2022-08-20T13:18:20.632Z,17.38
2022-08-20T13:23:59.360Z,17.45
2022-08-20T13:26:28.170Z,18.13
2022-08-20T13:28:58.169Z,18.40
2022-08-20T13:31:26.933Z,18.92
2022-08-20T13:33:55.567Z,20.35
2022-08-20T13:36:24.173Z,17.52
2022-08-20T13:38:53.296Z,17.30
2022-08-20T13:41:21.947Z,17.90
2022-08-20T13:43:50.850Z,17.05
2022-08-20T13:46:21.192Z,17.77
2022-08-20T13:48:49.973Z,16.90
2022-08-20T13:51:19.052Z,17.83
2022-08-20T13:54:07.168Z,20.20
2022-08-20T13:57:12.108Z,17.38
2022-08-20T13:59:43.793Z,15.80
2022-08-20T14:02:15.668Z,16.17
2022-08-20T14:04:44.913Z,15.88
2022-08-20T14:07:15.869Z,16.98
2022-08-20T14:09:47.218Z,14.82
2022-08-20T14:12:17.151Z,17.40
2022-08-20T14:14:46.348Z,14.65
2022-08-20T14:17:39.216Z,15.02
2022-08-20T14:20:12.001Z,16.95
2022-08-20T14:22:42.152Z,16.27
2022-08-20T14:25:14.510Z,14.95
2022-08-20T14:27:45.687Z,13.65
2022-08-20T14:30:19.339Z,14.93
2022-08-20T14:32:50.155Z,13.65
2022-08-20T14:35:19.517Z,15.13
2022-08-20T14:37:50.337Z,20.38
2022-08-20T14:40:21.544Z,15.35
2022-08-20T14:42:51.653Z,14.90
2022-08-20T14:45:22.751Z,15.43
2022-08-20T14:47:55.489Z,14.68
2022-08-20T14:50:27.903Z,15.40
2022-08-20T14:53:00.406Z,15.48
2022-08-20T14:55:33.534Z,14.45
2022-08-20T14:58:03.206Z,15.07
2022-08-20T15:00:34.278Z,15.95
2022-08-20T15:03:04.669Z,16.30
2022-08-20T15:05:33.469Z,14.52
2022-08-20T15:08:02.481Z,14.88
2022-08-20T15:10:34.449Z,15.48
2022-08-20T15:13:03.249Z,13.20
2022-08-20T15:15:31.981Z,12.57
2022-08-20T15:18:01.681Z,16.23
2022-08-20T15:20:34.932Z,22.90
2022-08-20T15:23:15.619Z,22.65
2022-08-20T15:25:50.044Z,19.05
2022-08-20T15:28:26.364Z,16.00
2022-08-20T15:38:53.029Z,10.40
2022-08-20T15:41:21.605Z,11.38
2022-08-20T15:43:50.454Z,10.73
2022-08-20T15:48:55.365Z,10.95
2022-08-20T15:51:30.505Z,8.55
2022-08-20T15:54:03.424Z,8.75
2022-08-20T15:56:51.837Z,8.80
2022-08-20T15:59:59.044Z,5.55
2022-08-20T16:02:54.147Z,5.22
2022-08-20T16:05:29.251Z,4.93
2022-08-20T16:08:09.290Z,5.25
2022-08-20T16:10:49.580Z,5.28
2022-08-20T16:13:31.024Z,3.90
2022-08-20T16:16:04.051Z,4.90
2022-08-20T16:18:36.290Z,7.28
2022-08-20T16:21:10.928Z,7.07
2022-08-20T16:23:42.681Z,8.60
2022-08-20T16:26:28.043Z,6.85
2022-08-20T16:29:09.981Z,9.45
2022-08-20T16:31:48.767Z,9.18
2022-08-20T16:34:34.360Z,11.15
2022-08-20T16:37:12.894Z,12.23
2022-08-20T16:39:48.645Z,10.95
2022-08-20T16:42:24.951Z,7.43
2022-08-20T16:44:56.291Z,8.77
2022-08-20T16:47:30.118Z,6.47
2022-08-20T16:50:03.804Z,4.70
2022-08-20T16:52:32.327Z,4.72
2022-08-20T16:55:01.195Z,5.63
2022-08-20T16:57:31.537Z,6.35
2022-08-20T17:00:07.944Z,5.00
2022-08-20T17:02:36.596Z,4.13
2022-08-20T17:05:06.693Z,3.60
2022-08-20T17:15:57.121Z,5.63
2022-08-20T17:25:06.261Z,4.97
2022-08-20T17:27:48.646Z,3.42
2022-08-20T17:33:06.800Z,3.33
2022-08-20T17:35:41.953Z,7.15
2022-08-20T17:38:30.696Z,3.50
2022-08-20T17:41:01.966Z,3.88
2022-08-20T17:56:40.552Z,3.40
2022-08-20T18:22:32.743Z,2.95
2022-08-20T18:43:47.933Z,3.08
2022-08-20T18:49:00.600Z,3.15
2022-08-20T18:51:36.550Z,4.55
2022-08-20T19:02:58.296Z,4.30
2022-08-20T19:05:33.257Z,4.38
2022-08-20T19:16:07.487Z,5.20
2022-08-20T19:18:46.234Z,6.18
2022-08-20T19:21:18.352Z,5.10
2022-08-20T19:23:56.216Z,8.23
2022-08-20T19:26:38.310Z,7.15
2022-08-20T19:29:56.949Z,6.20
2022-08-20T19:33:06.844Z,7.13
2022-08-20T19:42:42.548Z,7.20
2022-08-20T19:45:35.786Z,5.78
2022-08-20T19:52:49.964Z,7.05
2022-08-20T20:00:05.162Z,5.10
2022-08-20T20:02:50.542Z,5.57
2022-08-20T20:05:51.349Z,8.48
2022-08-20T20:13:11.203Z,5.38
2022-08-20T20:15:48.456Z,4.93
2022-08-20T20:18:32.598Z,3.40
2022-08-20T20:21:17.289Z,3.63
2022-08-20T20:23:55.082Z,3.80
2022-08-20T20:26:26.285Z,4.55
2022-08-20T20:29:04.687Z,5.13
2022-08-20T20:31:44.038Z,6.53
2022-08-20T20:34:19.913Z,5.97
2022-08-20T20:36:49.948Z,12.88
2022-08-20T20:39:30.644Z,8.18
2022-08-20T20:42:02.910Z,9.68
2022-08-20T20:44:37.576Z,7.82
2022-08-20T20:47:18.600Z,7.93
2022-08-20T20:49:55.324Z,7.15
2022-08-20T20:52:35.443Z,6.50
2022-08-20T20:55:29.691Z,6.25
2022-08-20T20:58:39.730Z,5.88
2022-08-20T21:01:27.226Z,4.85
2022-08-20T21:08:38.271Z,4.75
2022-08-20T21:11:13.901Z,3.40
2022-08-20T21:29:47.932Z,3.58
2022-08-20T21:32:18.209Z,4.15
2022-08-20T21:34:47.296Z,3.85
2022-08-20T21:37:16.871Z,5.10
2022-08-20T21:39:46.179Z,4.88
2022-08-20T21:42:28.723Z,5.00
2022-08-20T21:45:00.259Z,5.47
2022-08-20T21:47:29.033Z,4.90
2022-08-20T21:49:57.953Z,5.07
2022-08-20T21:52:26.896Z,4.30
2022-08-20T21:54:55.834Z,4.28
2022-08-20T21:57:31.394Z,6.20
2022-08-20T22:00:16.669Z,8.20
2022-08-20T22:02:45.750Z,5.18
2022-08-20T22:05:16.686Z,6.43
2022-08-20T22:07:55.274Z,11.07
2022-08-20T22:10:23.955Z,7.43
2022-08-20T22:12:54.894Z,7.47
2022-08-20T22:15:27.445Z,9.25
2022-08-20T22:17:59.238Z,6.55
2022-08-20T22:20:31.888Z,6.60
2022-08-20T22:23:05.313Z,6.82
2022-08-20T22:25:35.270Z,5.75
2022-08-20T22:28:07.001Z,7.35
2022-08-20T22:30:42.133Z,6.30
2022-08-20T22:33:13.424Z,5.30
2022-08-20T22:35:47.324Z,5.95
2022-08-20T22:38:20.362Z,5.32
2022-08-20T22:40:58.131Z,6.18
2022-08-20T22:43:27.019Z,5.15
2022-08-20T22:46:02.919Z,5.97
2022-08-20T22:48:39.815Z,6.40
2022-08-20T22:51:08.568Z,10.93
2022-08-20T22:53:45.586Z,6.75
2022-08-20T22:56:21.639Z,5.65
2022-08-20T22:58:54.494Z,5.30
2022-08-20T23:01:27.286Z,8.52
2022-08-20T23:03:57.274Z,9.85
2022-08-20T23:06:31.429Z,11.95
2022-08-20T23:09:00.781Z,7.03
2022-08-20T23:11:29.953Z,7.32
2022-08-20T23:13:58.539Z,6.90
2022-08-20T23:16:30.163Z,7.30
2022-08-20T23:18:59.096Z,9.07
2022-08-20T23:21:28.075Z,6.00
2022-08-20T23:23:59.720Z,6.45
2022-08-20T23:26:29.691Z,6.30
2022-08-20T23:28:58.645Z,6.28
2022-08-20T23:31:27.776Z,6.35
2022-08-20T23:33:57.831Z,7.10
2022-08-20T23:36:27.089Z,7.07
2022-08-20T23:38:57.075Z,6.43
2022-08-20T23:41:26.081Z,7.22
2022-08-20T23:43:54.805Z,5.78
2022-08-20T23:46:27.541Z,6.95
2022-08-20T23:49:02.087Z,6.80
2022-08-20T23:51:33.739Z,7.72
2022-08-20T23:54:07.877Z,8.38
2022-08-20T23:56:36.618Z,9.10
2022-08-20T23:59:06.037Z,8.25
